Wetterdaten: Woche 28.12.09 - 03.01.10 (KW53)
Datum Zeit Temperatur Luftfeuchte Luftdruck Niederschlag Wind Richtung Sonnenschein Solar Taupunkt Windchill Windben
28.12.2009 00:00 2.8 C 88 % 1010.8 hPa 0.0 l/m 7.9 km/h (2 Bft) W 0.00 h 0 W/m 1.0 C 0.8 C 12.4 km/h (3 Bft)
28.12.2009 01:00 2.4 C 88 % 1010.5 hPa 0.0 l/m 1.7 km/h (1 Bft) S 0.00 h 0 W/m 0.6 C 2.3 C 3.6 km/h (1 Bft)
28.12.2009 02:00 2.0 C 89 % 1010.1 hPa 0.0 l/m 2.6 km/h (1 Bft) S-SO 0.00 h 0 W/m 0.4 C 1.7 C 5.1 km/h (1 Bft)
28.12.2009 03:00 1.7 C 89 % 1010.1 hPa 0.0 l/m 3.0 km/h (1 Bft) O-SO 0.00 h 0 W/m 0.1 C 1.1 C 4.5 km/h (1 Bft)
28.12.2009 04:00 1.5 C 90 % 1009.5 hPa 0.0 l/m 1.7 km/h (1 Bft) SO 0.00 h 0 W/m 0.0 C 1.3 C 2.9 km/h (1 Bft)
28.12.2009 05:00 1.3 C 90 % 1009.5 hPa 0.0 l/m 1.3 km/h (1 Bft) SO 0.00 h 0 W/m -0.1 C 1.2 C 2.3 km/h (1 Bft)
28.12.2009 06:00 0.6 C 91 % 1009.6 hPa 0.0 l/m 0.1 km/h (0 Bft) SO 0.00 h 0 W/m -0.7 C 0.6 C 0.2 km/h (0 Bft)
28.12.2009 07:00 0.2 C 91 % 1009.0 hPa 0.0 l/m 1.2 km/h (1 Bft) SO 0.00 h 0 W/m -1.1 C 0.1 C 2.1 km/h (1 Bft)
28.12.2009 08:00 -0.2 C 94 % 1008.6 hPa 0.0 l/m 3.2 km/h (1 Bft) SO 0.10 h 16 W/m -1.1 C -0.7 C 4.4 km/h (1 Bft)
28.12.2009 09:00 0.3 C 95 % 1008.1 hPa 0.0 l/m 1.0 km/h (0 Bft) SO 0.03 h 60 W/m -0.4 C 0.1 C 1.7 km/h (1 Bft)
28.12.2009 10:00 0.5 C 95 % 1008.0 hPa 0.0 l/m 0.1 km/h (0 Bft) SO 0.00 h 81 W/m -0.2 C 0.5 C 0.3 km/h (0 Bft)
28.12.2009 11:00 1.3 C 96 % 1007.9 hPa 0.0 l/m 0.5 km/h (0 Bft) SO 0.00 h 110 W/m 0.8 C 1.3 C 1.3 km/h (1 Bft)
28.12.2009 12:00 2.0 C 96 % 1007.3 hPa 0.0 l/m 0.6 km/h (0 Bft) SO 0.00 h 112 W/m 1.5 C 2.0 C 2.0 km/h (1 Bft)
28.12.2009 13:00 2.3 C 96 % 1006.8 hPa 0.0 l/m 0.6 km/h (0 Bft) S-SO 0.00 h 100 W/m 1.7 C 2.3 C 1.4 km/h (1 Bft)
28.12.2009 14:00 2.8 C 96 % 1006.6 hPa 0.0 l/m 0.0 km/h (0 Bft) S-SO 0.00 h 84 W/m 2.1 C 2.8 C 0.3 km/h (0 Bft)
28.12.2009 15:00 3.0 C 95 % 1006.6 hPa 0.0 l/m 0.0 km/h (0 Bft) N 0.03 h 55 W/m 2.3 C 3.0 C 0.0 km/h (0 Bft)
28.12.2009 16:00 2.8 C 94 % 1006.7 hPa 0.0 l/m 0.1 km/h (0 Bft) S-SO 0.08 h 17 W/m 2.0 C 2.8 C 0.4 km/h (0 Bft)
28.12.2009 17:00 2.1 C 93 % 1006.6 hPa 0.0 l/m 0.0 km/h (0 Bft) S-SO 0.00 h 0 W/m 1.1 C 2.1 C 0.3 km/h (0 Bft)
28.12.2009 18:00 1.7 C 94 % 1006.6 hPa 0.0 l/m 0.0 km/h (0 Bft) N 0.00 h 0 W/m 0.8 C 1.7 C 0.1 km/h (0 Bft)
28.12.2009 19:00 1.4 C 94 % 1006.6 hPa 0.0 l/m 0.1 km/h (0 Bft) S-SO 0.00 h 0 W/m 0.5 C 1.4 C 0.3 km/h (0 Bft)
28.12.2009 20:00 1.1 C 95 % 1006.7 hPa 0.0 l/m 0.2 km/h (0 Bft) S-SO 0.00 h 0 W/m 0.4 C 1.1 C 0.7 km/h (0 Bft)
28.12.2009 21:00 1.1 C 95 % 1006.8 hPa 0.0 l/m 0.1 km/h (0 Bft) S-SO 0.00 h 0 W/m 0.4 C 1.1 C 0.6 km/h (0 Bft)
28.12.2009 22:00 1.0 C 95 % 1006.8 hPa 0.0 l/m 0.0 km/h (0 Bft) N 0.00 h 0 W/m 0.3 C 1.0 C 0.0 km/h (0 Bft)
28.12.2009 23:00 0.9 C 96 % 1006.6 hPa 0.0 l/m 0.1 km/h (0 Bft) S-SO 0.00 h 0 W/m 0.3 C 0.9 C 0.4 km/h (0 Bft)
29.12.2009 00:00 0.9 C 96 % 1006.3 hPa 0.0 l/m 0.0 km/h (0 Bft) S-SO 0.00 h 0 W/m 0.3 C 0.9 C 0.1 km/h (0 Bft)
29.12.2009 01:00 0.9 C 96 % 1005.9 hPa 0.0 l/m 0.1 km/h (0 Bft) S-SO 0.00 h 0 W/m 0.3 C 0.9 C 0.3 km/h (0 Bft)
29.12.2009 02:00 0.8 C 96 % 1005.9 hPa 0.4 l/m 0.0 km/h (0 Bft) N 0.00 h 0 W/m 0.3 C 0.8 C 0.1 km/h (0 Bft)
29.12.2009 03:00 0.7 C 96 % 1005.8 hPa 1.0 l/m 0.0 km/h (0 Bft) N 0.00 h 0 W/m 0.1 C 0.7 C 0.1 km/h (0 Bft)
29.12.2009 04:00 0.4 C 96 % 1005.4 hPa 0.4 l/m 0.0 km/h (0 Bft) N 0.00 h 0 W/m -0.2 C 0.4 C 0.0 km/h (0 Bft)
29.12.2009 05:00 0.3 C 96 % 1005.2 hPa 0.8 l/m 0.0 km/h (0 Bft) N 0.00 h 0 W/m -0.3 C 0.3 C 0.0 km/h (0 Bft)
29.12.2009 06:00 0.4 C 97 % 1004.9 hPa 2.0 l/m 0.1 km/h (0 Bft) S-SO 0.00 h 0 W/m -0.0 C 0.4 C 0.5 km/h (0 Bft)
29.12.2009 07:00 0.4 C 97 % 1004.6 hPa 0.6 l/m 0.1 km/h (0 Bft) S-SO 0.00 h 0 W/m -0.0 C 0.4 C 0.3 km/h (0 Bft)
29.12.2009 08:00 0.4 C 97 % 1004.6 hPa 0.4 l/m 0.0 km/h (0 Bft) N 0.00 h 13 W/m 0.0 C 0.4 C 0.0 km/h (0 Bft)
29.12.2009 09:00 0.7 C 97 % 1004.6 hPa 0.2 l/m 0.0 km/h (0 Bft) N 0.00 h 18 W/m 0.3 C 0.7 C 0.0 km/h (0 Bft)
29.12.2009 10:00 1.0 C 97 % 1004.4 hPa 0.2 l/m 0.0 km/h (0 Bft) S-SO 0.00 h 43 W/m 0.6 C 1.0 C 0.2 km/h (0 Bft)
29.12.2009 11:00 1.4 C 97 % 1004.0 hPa 0.2 l/m 0.1 km/h (0 Bft) S-SO 0.00 h 61 W/m 1.0 C 1.4 C 0.2 km/h (0 Bft)
29.12.2009 12:00 1.6 C 97 % 1003.5 hPa 0.4 l/m 0.0 km/h (0 Bft) S-SO 0.00 h 49 W/m 1.2 C 1.6 C 0.6 km/h (0 Bft)
29.12.2009 13:00 1.6 C 97 % 1003.2 hPa 1.4 l/m 0.3 km/h (0 Bft) S-SO 0.00 h 39 W/m 1.2 C 1.6 C 1.0 km/h (0 Bft)
29.12.2009 14:00 1.8 C 98 % 1002.6 hPa 0.2 l/m 0.6 km/h (0 Bft) S-SO 0.00 h 41 W/m 1.6 C 1.8 C 1.8 km/h (1 Bft)
29.12.2009 15:00 2.0 C 98 % 1002.2 hPa 0.0 l/m 0.8 km/h (0 Bft) S-SO 0.00 h 23 W/m 1.8 C 2.0 C 2.1 km/h (1 Bft)
29.12.2009 16:00 2.2 C 98 % 1002.0 hPa 0.0 l/m 0.8 km/h (0 Bft) N-NW 0.00 h 10 W/m 1.9 C 2.2 C 2.3 km/h (1 Bft)
29.12.2009 17:00 2.6 C 98 % 1001.9 hPa 1.6 l/m 2.1 km/h (1 Bft) N 0.00 h 0 W/m 2.3 C 2.3 C 4.3 km/h (1 Bft)
29.12.2009 18:00 2.9 C 98 % 1001.4 hPa 0.4 l/m 1.0 km/h (0 Bft) O-NO 0.00 h 0 W/m 2.6 C 2.8 C 2.6 km/h (1 Bft)
29.12.2009 19:00 2.9 C 98 % 1001.3 hPa 0.4 l/m 0.6 km/h (0 Bft) W 0.00 h 0 W/m 2.6 C 2.8 C 1.3 km/h (1 Bft)
29.12.2009 20:00 2.9 C 98 % 1001.3 hPa 0.6 l/m 2.2 km/h (1 Bft) N-NO 0.00 h 0 W/m 2.6 C 2.6 C 3.8 km/h (1 Bft)
29.12.2009 21:00 3.5 C 98 % 1001.7 hPa 1.2 l/m 3.1 km/h (1 Bft) SO 0.00 h 0 W/m 3.2 C 2.9 C 5.0 km/h (1 Bft)
29.12.2009 22:00 5.2 C 99 % 1001.6 hPa 3.0 l/m 5.1 km/h (1 Bft) SO 0.00 h 0 W/m 5.1 C 4.3 C 8.4 km/h (2 Bft)
29.12.2009 23:00 6.8 C 99 % 1001.5 hPa 2.4 l/m 4.1 km/h (1 Bft) S-SO 0.00 h 0 W/m 6.7 C 6.3 C 7.1 km/h (2 Bft)
30.12.2009 00:00 7.3 C 99 % 1001.0 hPa 0.2 l/m 3.9 km/h (1 Bft) S 0.00 h 0 W/m 7.1 C 6.9 C 8.0 km/h (2 Bft)
30.12.2009 01:00 7.2 C 99 % 1000.3 hPa 0.8 l/m 2.0 km/h (1 Bft) O-SO 0.00 h 0 W/m 7.1 C 7.1 C 3.9 km/h (1 Bft)
30.12.2009 02:00 6.9 C 99 % 999.8 hPa 1.6 l/m 1.2 km/h (1 Bft) O-SO 0.00 h 0 W/m 6.8 C 6.9 C 2.3 km/h (1 Bft)
30.12.2009 03:00 6.3 C 99 % 1000.1 hPa 3.4 l/m 3.2 km/h (1 Bft) SO 0.00 h 0 W/m 6.1 C 5.9 C 5.1 km/h (1 Bft)
30.12.2009 04:00 6.1 C 99 % 1000.4 hPa 5.2 l/m 1.7 km/h (1 Bft) N 0.00 h 0 W/m 5.9 C 6.0 C 3.1 km/h (1 Bft)
30.12.2009 05:00 6.4 C 99 % 1000.2 hPa 1.4 l/m 2.3 km/h (1 Bft) S-SO 0.00 h 0 W/m 6.3 C 6.3 C 4.0 km/h (1 Bft)
30.12.2009 06:00 7.1 C 99 % 999.6 hPa 0.4 l/m 2.7 km/h (1 Bft) SO 0.00 h 0 W/m 7.0 C 7.1 C 4.2 km/h (1 Bft)
30.12.2009 07:00 6.7 C 99 % 999.2 hPa 0.4 l/m 0.3 km/h (0 Bft) S-SO 0.00 h 0 W/m 6.5 C 6.7 C 1.0 km/h (0 Bft)
30.12.2009 08:00 6.2 C 99 % 998.7 hPa 0.0 l/m 0.3 km/h (0 Bft) NO 0.05 h 6 W/m 6.0 C 6.2 C 1.1 km/h (1 Bft)
30.12.2009 09:00 5.8 C 99 % 998.4 hPa 0.0 l/m 0.4 km/h (0 Bft) NO 0.00 h 11 W/m 5.7 C 5.8 C 1.1 km/h (1 Bft)
30.12.2009 10:00 5.9 C 99 % 997.0 hPa 0.4 l/m 0.5 km/h (0 Bft) NO 0.00 h 28 W/m 5.7 C 5.9 C 1.5 km/h (1 Bft)
30.12.2009 11:00 5.8 C 99 % 996.5 hPa 1.0 l/m 0.7 km/h (0 Bft) O 0.00 h 22 W/m 5.7 C 5.8 C 1.5 km/h (1 Bft)
30.12.2009 12:00 6.2 C 99 % 996.1 hPa 0.2 l/m 1.3 km/h (1 Bft) O 0.00 h 27 W/m 6.0 C 6.0 C 2.6 km/h (1 Bft)
30.12.2009 13:00 7.0 C 99 % 995.1 hPa 0.2 l/m 2.6 km/h (1 Bft) O-NO 0.00 h 28 W/m 6.9 C 6.8 C 4.5 km/h (1 Bft)
30.12.2009 14:00 7.4 C 99 % 994.6 hPa 0.6 l/m 2.9 km/h (1 Bft) S-SO 0.00 h 18 W/m 7.3 C 7.3 C 6.2 km/h (2 Bft)
30.12.2009 15:00 7.7 C 99 % 995.1 hPa 1.8 l/m 3.7 km/h (1 Bft) W-NW 0.00 h 14 W/m 7.6 C 7.3 C 6.2 km/h (2 Bft)
30.12.2009 16:00 8.0 C 99 % 995.6 hPa 1.8 l/m 5.9 km/h (2 Bft) W-NW 0.00 h 5 W/m 7.9 C 7.2 C 9.5 km/h (2 Bft)
30.12.2009 17:00 8.1 C 99 % 995.9 hPa 0.6 l/m 6.4 km/h (2 Bft) SW 0.00 h 0 W/m 7.9 C 7.3 C 10.2 km/h (2 Bft)
30.12.2009 18:00 7.9 C 99 % 996.6 hPa 0.4 l/m 3.4 km/h (1 Bft) S-SO 0.00 h 0 W/m 7.8 C 7.7 C 5.9 km/h (2 Bft)
30.12.2009 19:00 7.8 C 98 % 996.7 hPa 0.4 l/m 1.1 km/h (1 Bft) S 0.00 h 0 W/m 7.6 C 7.7 C 2.1 km/h (1 Bft)
30.12.2009 20:00 7.4 C 99 % 997.0 hPa 0.2 l/m 2.3 km/h (1 Bft) S-SO 0.00 h 0 W/m 7.3 C 7.3 C 4.5 km/h (1 Bft)
30.12.2009 21:00 7.6 C 99 % 997.5 hPa 0.0 l/m 1.9 km/h (1 Bft) S 0.00 h 0 W/m 7.4 C 7.5 C 4.1 km/h (1 Bft)
30.12.2009 22:00 7.7 C 98 % 997.8 hPa 0.2 l/m 2.3 km/h (1 Bft) SW 0.00 h 0 W/m 7.4 C 7.6 C 5.6 km/h (1 Bft)
30.12.2009 23:00 7.5 C 98 % 997.9 hPa 0.0 l/m 4.5 km/h (1 Bft) S 0.00 h 0 W/m 7.2 C 7.0 C 8.6 km/h (2 Bft)
31.12.2009 00:00 7.5 C 97 % 997.6 hPa 0.0 l/m 5.7 km/h (1 Bft) S-SO 0.00 h 0 W/m 7.1 C 6.7 C 11.1 km/h (2 Bft)
31.12.2009 01:00 7.2 C 95 % 997.1 hPa 0.0 l/m 1.4 km/h (1 Bft) O-SO 0.00 h 0 W/m 6.5 C 7.1 C 2.7 km/h (1 Bft)
31.12.2009 02:00 6.9 C 95 % 996.8 hPa 0.0 l/m 1.5 km/h (1 Bft) O-SO 0.00 h 0 W/m 6.1 C 6.8 C 2.8 km/h (1 Bft)
31.12.2009 03:00 6.6 C 95 % 996.2 hPa 0.0 l/m 0.6 km/h (0 Bft) O-SO 0.00 h 0 W/m 5.9 C 6.6 C 1.4 km/h (1 Bft)
31.12.2009 04:00 6.1 C 95 % 996.2 hPa 3.6 l/m 0.9 km/h (0 Bft) N 0.00 h 0 W/m 5.3 C 6.1 C 2.0 km/h (1 Bft)
31.12.2009 05:00 6.2 C 96 % 996.3 hPa 0.6 l/m 1.8 km/h (1 Bft) SO 0.00 h 0 W/m 5.6 C 6.1 C 3.8 km/h (1 Bft)
31.12.2009 06:00 6.2 C 96 % 996.1 hPa 0.6 l/m 1.4 km/h (1 Bft) SO 0.00 h 0 W/m 5.7 C 6.2 C 2.9 km/h (1 Bft)
31.12.2009 07:00 6.3 C 97 % 996.2 hPa 1.0 l/m 1.4 km/h (1 Bft) S-SO 0.00 h 0 W/m 5.9 C 6.2 C 3.0 km/h (1 Bft)
31.12.2009 08:00 6.4 C 97 % 996.4 hPa 0.0 l/m 2.2 km/h (1 Bft) S-SO 0.00 h 10 W/m 6.0 C 6.3 C 4.6 km/h (1 Bft)
31.12.2009 09:00 6.6 C 97 % 996.2 hPa 0.0 l/m 3.0 km/h (1 Bft) S-SO 0.00 h 37 W/m 6.2 C 6.2 C 6.1 km/h (2 Bft)
31.12.2009 10:00 6.7 C 97 % 996.2 hPa 0.0 l/m 2.4 km/h (1 Bft) S-SO 0.00 h 53 W/m 6.3 C 6.6 C 4.5 km/h (1 Bft)
31.12.2009 11:00 6.8 C 97 % 996.2 hPa 1.0 l/m 0.9 km/h (0 Bft) W-SW 0.00 h 30 W/m 6.4 C 6.8 C 2.5 km/h (1 Bft)
31.12.2009 12:00 6.7 C 97 % 996.0 hPa 1.6 l/m 2.4 km/h (1 Bft) SO 0.00 h 28 W/m 6.2 C 6.5 C 3.9 km/h (1 Bft)
31.12.2009 13:00 6.5 C 97 % 995.5 hPa 1.2 l/m 3.6 km/h (1 Bft) S-SO 0.00 h 28 W/m 6.1 C 6.2 C 6.5 km/h (2 Bft)
31.12.2009 14:00 6.3 C 97 % 995.1 hPa 0.6 l/m 2.0 km/h (1 Bft) S 0.02 h 78 W/m 5.9 C 6.2 C 3.8 km/h (1 Bft)
31.12.2009 15:00 6.5 C 96 % 994.5 hPa 0.0 l/m 0.3 km/h (0 Bft) S-SW 0.13 h 58 W/m 6.0 C 6.5 C 1.1 km/h (1 Bft)
31.12.2009 16:00 6.4 C 96 % 994.2 hPa 0.0 l/m 0.8 km/h (0 Bft) SO 0.00 h 12 W/m 5.8 C 6.3 C 1.7 km/h (1 Bft)
31.12.2009 17:00 6.1 C 96 % 993.8 hPa 0.0 l/m 0.3 km/h (0 Bft) S-SO 0.00 h 0 W/m 5.5 C 6.1 C 0.9 km/h (0 Bft)
31.12.2009 18:00 5.7 C 96 % 993.7 hPa 0.0 l/m 0.6 km/h (0 Bft) SO 0.00 h 0 W/m 5.0 C 5.7 C 1.4 km/h (1 Bft)
31.12.2009 19:00 5.3 C 96 % 993.7 hPa 0.0 l/m 0.0 km/h (0 Bft) N 0.00 h 0 W/m 4.7 C 5.3 C 0.1 km/h (0 Bft)
31.12.2009 20:00 5.1 C 97 % 993.4 hPa 0.0 l/m 1.2 km/h (1 Bft) O-SO 0.00 h 0 W/m 4.6 C 5.0 C 1.9 km/h (1 Bft)
31.12.2009 21:00 4.7 C 97 % 993.1 hPa 0.0 l/m 0.4 km/h (0 Bft) O-SO 0.00 h 0 W/m 4.2 C 4.7 C 0.8 km/h (0 Bft)
31.12.2009 22:00 4.5 C 97 % 992.7 hPa 0.0 l/m 1.4 km/h (1 Bft) O-SO 0.00 h 0 W/m 4.0 C 4.5 C 2.8 km/h (1 Bft)
31.12.2009 23:00 4.2 C 97 % 992.3 hPa 0.0 l/m 1.3 km/h (1 Bft) O-SO 0.00 h 0 W/m 3.8 C 4.1 C 2.1 km/h (1 Bft)
01.01.2010 00:00 4.3 C 98 % 992.0 hPa 0.0 l/m 1.2 km/h (1 Bft) O-SO 0.00 h 0 W/m 4.0 C 4.3 C 2.0 km/h (1 Bft)
01.01.2010 01:00 4.3 C 98 % 991.6 hPa 0.0 l/m 1.0 km/h (0 Bft) O-SO 0.00 h 0 W/m 4.0 C 4.3 C 1.8 km/h (1 Bft)
01.01.2010 02:00 4.2 C 98 % 991.2 hPa 0.0 l/m 0.4 km/h (0 Bft) SO 0.00 h 0 W/m 3.9 C 4.2 C 0.9 km/h (0 Bft)
01.01.2010 03:00 4.4 C 98 % 990.7 hPa 0.0 l/m 0.5 km/h (0 Bft) SO 0.00 h 0 W/m 4.1 C 4.4 C 1.4 km/h (1 Bft)
01.01.2010 04:00 4.5 C 98 % 990.3 hPa 0.0 l/m 0.3 km/h (0 Bft) SO 0.00 h 0 W/m 4.2 C 4.5 C 0.6 km/h (0 Bft)
01.01.2010 05:00 4.4 C 98 % 990.0 hPa 0.0 l/m 0.2 km/h (0 Bft) SO 0.00 h 0 W/m 4.1 C 4.4 C 0.7 km/h (0 Bft)
01.01.2010 06:00 4.3 C 98 % 990.0 hPa 0.0 l/m 0.1 km/h (0 Bft) SO 0.00 h 0 W/m 4.0 C 4.3 C 0.6 km/h (0 Bft)
01.01.2010 07:00 4.2 C 98 % 989.7 hPa 0.0 l/m 2.3 km/h (1 Bft) SO 0.00 h 0 W/m 3.9 C 4.1 C 3.5 km/h (1 Bft)
01.01.2010 08:00 4.2 C 98 % 989.9 hPa 0.0 l/m 0.2 km/h (0 Bft) SO 0.00 h 9 W/m 3.9 C 4.2 C 0.7 km/h (0 Bft)
01.01.2010 09:00 4.0 C 98 % 990.5 hPa 0.0 l/m 0.4 km/h (0 Bft) NO 0.00 h 23 W/m 3.7 C 4.0 C 1.4 km/h (1 Bft)
01.01.2010 10:00 3.9 C 98 % 991.1 hPa 0.0 l/m 1.1 km/h (1 Bft) O-SO 0.00 h 43 W/m 3.6 C 3.9 C 2.6 km/h (1 Bft)
01.01.2010 11:00 4.0 C 98 % 991.7 hPa 0.0 l/m 0.5 km/h (0 Bft) O 0.00 h 63 W/m 3.7 C 4.0 C 1.6 km/h (1 Bft)
01.01.2010 12:00 4.3 C 98 % 991.5 hPa 0.0 l/m 0.6 km/h (0 Bft) O 0.00 h 64 W/m 4.0 C 4.3 C 1.6 km/h (1 Bft)
01.01.2010 13:00 4.5 C 98 % 991.8 hPa 0.0 l/m 1.4 km/h (1 Bft) W 0.00 h 59 W/m 4.2 C 4.4 C 2.5 km/h (1 Bft)
01.01.2010 14:00 4.8 C 98 % 992.2 hPa 0.0 l/m 0.0 km/h (0 Bft) N 0.00 h 46 W/m 4.5 C 4.8 C 0.5 km/h (0 Bft)
01.01.2010 15:00 4.9 C 98 % 993.1 hPa 0.2 l/m 0.1 km/h (0 Bft) W 0.00 h 16 W/m 4.6 C 4.9 C 0.2 km/h (0 Bft)
01.01.2010 16:00 4.6 C 98 % 994.3 hPa 1.0 l/m 3.2 km/h (1 Bft) W 0.00 h 6 W/m 4.3 C 4.1 C 5.7 km/h (1 Bft)
01.01.2010 17:00 4.0 C 97 % 995.6 hPa 1.2 l/m 9.6 km/h (2 Bft) W 0.00 h 0 W/m 3.5 C 1.7 C 15.5 km/h (3 Bft)
01.01.2010 18:00 3.1 C 96 % 997.0 hPa 0.6 l/m 15.7 km/h (3 Bft) W 0.00 h 0 W/m 2.5 C -0.6 C 24.8 km/h (4 Bft)
01.01.2010 19:00 2.0 C 95 % 998.8 hPa 0.2 l/m 19.5 km/h (3 Bft) W 0.00 h 0 W/m 1.3 C -2.6 C 29.9 km/h (5 Bft)
01.01.2010 20:00 1.4 C 93 % 1000.9 hPa 0.2 l/m 20.2 km/h (4 Bft) W 0.00 h 0 W/m 0.5 C -3.5 C 30.7 km/h (5 Bft)
01.01.2010 21:00 1.1 C 92 % 1002.7 hPa 0.0 l/m 18.1 km/h (3 Bft) W 0.00 h 0 W/m -0.0 C -3.5 C 27.5 km/h (4 Bft)
01.01.2010 22:00 0.8 C 90 % 1004.2 hPa 0.0 l/m 20.8 km/h (4 Bft) W 0.00 h 0 W/m -0.7 C -4.3 C 31.4 km/h (5 Bft)
01.01.2010 23:00 0.4 C 86 % 1005.0 hPa 0.0 l/m 19.3 km/h (3 Bft) W-NW 0.00 h 0 W/m -1.6 C -4.6 C 29.0 km/h (5 Bft)
02.01.2010 00:00 0.1 C 83 % 1006.1 hPa 0.0 l/m 19.3 km/h (3 Bft) W 0.00 h 0 W/m -2.4 C -4.9 C 29.3 km/h (5 Bft)
02.01.2010 01:00 -0.1 C 83 % 1007.2 hPa 0.0 l/m 14.9 km/h (3 Bft) W 0.00 h 0 W/m -2.6 C -4.4 C 21.7 km/h (4 Bft)
02.01.2010 02:00 -0.5 C 83 % 1008.4 hPa 0.0 l/m 17.0 km/h (3 Bft) W 0.00 h 0 W/m -3.0 C -5.3 C 25.8 km/h (4 Bft)
02.01.2010 03:00 -0.7 C 82 % 1009.4 hPa 0.0 l/m 18.2 km/h (3 Bft) W 0.00 h 0 W/m -3.4 C -5.7 C 27.5 km/h (4 Bft)
02.01.2010 04:00 -0.6 C 80 % 1010.7 hPa 0.0 l/m 16.7 km/h (3 Bft) W 0.00 h 0 W/m -3.6 C -5.4 C 24.8 km/h (4 Bft)
02.01.2010 05:00 -0.6 C 79 % 1011.6 hPa 0.0 l/m 14.2 km/h (3 Bft) W 0.00 h 0 W/m -3.8 C -4.9 C 21.9 km/h (4 Bft)
02.01.2010 06:00 -0.7 C 78 % 1012.3 hPa 0.0 l/m 14.6 km/h (3 Bft) W 0.00 h 0 W/m -4.1 C -5.1 C 22.7 km/h (4 Bft)
02.01.2010 07:00 -1.1 C 78 % 1013.4 hPa 0.0 l/m 13.7 km/h (3 Bft) W 0.00 h 0 W/m -4.5 C -5.4 C 20.8 km/h (4 Bft)
02.01.2010 08:00 -1.2 C 78 % 1014.5 hPa 0.0 l/m 11.9 km/h (2 Bft) W 0.00 h 13 W/m -4.5 C -5.1 C 18.9 km/h (3 Bft)
02.01.2010 09:00 -1.4 C 79 % 1015.4 hPa 0.0 l/m 15.1 km/h (3 Bft) W 0.05 h 42 W/m -4.5 C -6.1 C 22.2 km/h (4 Bft)
02.01.2010 10:00 -1.0 C 78 % 1016.4 hPa 0.0 l/m 14.4 km/h (3 Bft) W 0.00 h 66 W/m -4.3 C -5.4 C 21.6 km/h (4 Bft)
02.01.2010 11:00 -0.5 C 75 % 1017.3 hPa 0.0 l/m 10.6 km/h (2 Bft) W 0.97 h 292 W/m -4.4 C -3.9 C 16.7 km/h (3 Bft)
02.01.2010 12:00 0.2 C 69 % 1017.9 hPa 0.0 l/m 10.4 km/h (2 Bft) W 0.97 h 300 W/m -4.8 C -3.1 C 16.1 km/h (3 Bft)
02.01.2010 13:00 0.1 C 66 % 1018.6 hPa 0.0 l/m 11.3 km/h (2 Bft) W 1.00 h 245 W/m -5.4 C -3.4 C 17.4 km/h (3 Bft)
02.01.2010 14:00 0.2 C 63 % 1019.5 hPa 0.0 l/m 8.4 km/h (2 Bft) W 0.83 h 165 W/m -6.1 C -2.5 C 13.0 km/h (3 Bft)
02.01.2010 15:00 0.1 C 61 % 1020.2 hPa 0.0 l/m 8.8 km/h (2 Bft) W-SW 0.55 h 84 W/m -6.6 C -2.7 C 13.2 km/h (3 Bft)
02.01.2010 16:00 -0.7 C 63 % 1021.1 hPa 0.0 l/m 6.8 km/h (2 Bft) W 0.13 h 21 W/m -6.8 C -3.0 C 10.5 km/h (2 Bft)
02.01.2010 17:00 -1.4 C 68 % 1021.9 hPa 0.0 l/m 4.4 km/h (1 Bft) W 0.00 h 0 W/m -6.5 C -2.4 C 6.6 km/h (2 Bft)
02.01.2010 18:00 -1.9 C 71 % 1022.7 hPa 0.0 l/m 1.5 km/h (1 Bft) W 0.00 h 0 W/m -6.4 C -2.1 C 3.4 km/h (1 Bft)
02.01.2010 19:00 -2.5 C 72 % 1023.0 hPa 0.0 l/m 1.1 km/h (0 Bft) W-NW 0.00 h 0 W/m -6.8 C -2.5 C 2.7 km/h (1 Bft)
02.01.2010 20:00 -3.0 C 74 % 1023.3 hPa 0.0 l/m 1.6 km/h (1 Bft) S 0.00 h 0 W/m -7.0 C -3.1 C 3.7 km/h (1 Bft)
02.01.2010 21:00 -3.7 C 77 % 1023.3 hPa 0.0 l/m 0.1 km/h (0 Bft) S-SW 0.00 h 0 W/m -7.1 C -3.7 C 0.5 km/h (0 Bft)
02.01.2010 22:00 -4.4 C 80 % 1023.5 hPa 0.0 l/m 1.1 km/h (1 Bft) S-SW 0.00 h 0 W/m -7.3 C -4.5 C 2.2 km/h (1 Bft)
02.01.2010 23:00 -4.8 C 82 % 1023.5 hPa 0.0 l/m 1.6 km/h (1 Bft) O-SO 0.00 h 0 W/m -7.3 C -4.9 C 2.8 km/h (1 Bft)
03.01.2010 00:00 -5.2 C 84 % 1023.5 hPa 0.0 l/m 2.3 km/h (1 Bft) O-SO 0.00 h 0 W/m -7.5 C -5.4 C 3.7 km/h (1 Bft)
03.01.2010 01:00 -5.4 C 85 % 1023.6 hPa 0.0 l/m 1.8 km/h (1 Bft) O-SO 0.00 h 0 W/m -7.5 C -5.5 C 3.1 km/h (1 Bft)
03.01.2010 02:00 -5.5 C 85 % 1023.6 hPa 0.0 l/m 2.4 km/h (1 Bft) O-SO 0.00 h 0 W/m -7.6 C -5.9 C 4.0 km/h (1 Bft)
03.01.2010 03:00 -5.9 C 86 % 1023.6 hPa 0.0 l/m 0.2 km/h (0 Bft) O-SO 0.00 h 0 W/m -7.8 C -5.9 C 1.0 km/h (0 Bft)
03.01.2010 04:00 -6.2 C 87 % 1023.6 hPa 0.0 l/m 0.0 km/h (0 Bft) O-SO 0.00 h 0 W/m -8.1 C -6.2 C 0.2 km/h (0 Bft)
03.01.2010 05:00 -6.7 C 87 % 1023.6 hPa 0.0 l/m 0.5 km/h (0 Bft) O-SO 0.00 h 0 W/m -8.4 C -6.7 C 0.9 km/h (0 Bft)
03.01.2010 06:00 -6.9 C 88 % 1023.4 hPa 0.0 l/m 1.7 km/h (1 Bft) O-SO 0.00 h 0 W/m -8.6 C -7.1 C 2.6 km/h (1 Bft)
03.01.2010 07:00 -6.8 C 88 % 1023.1 hPa 0.0 l/m 0.7 km/h (0 Bft) O-SO 0.00 h 0 W/m -8.5 C -6.8 C 1.2 km/h (1 Bft)
03.01.2010 08:00 -7.2 C 88 % 1023.4 hPa 0.0 l/m 0.2 km/h (0 Bft) O-SO 0.02 h 13 W/m -8.8 C -7.2 C 0.8 km/h (0 Bft)
03.01.2010 09:00 -7.2 C 88 % 1023.8 hPa 0.0 l/m 0.0 km/h (0 Bft) N 0.23 h 51 W/m -8.8 C -7.2 C 0.1 km/h (0 Bft)
03.01.2010 10:00 -5.6 C 89 % 1023.7 hPa 0.0 l/m 0.3 km/h (0 Bft) O-SO 0.00 h 41 W/m -7.1 C -5.6 C 1.1 km/h (1 Bft)
03.01.2010 11:00 -3.9 C 86 % 1023.1 hPa 0.0 l/m 1.3 km/h (1 Bft) S-SW 0.87 h 220 W/m -5.9 C -4.0 C 3.3 km/h (1 Bft)
03.01.2010 12:00 -1.8 C 73 % 1021.8 hPa 0.0 l/m 1.3 km/h (1 Bft) W 1.00 h 287 W/m -6.1 C -1.9 C 2.9 km/h (1 Bft)
03.01.2010 13:00 -0.9 C 66 % 1021.3 hPa 0.0 l/m 1.8 km/h (1 Bft) S-SO 1.00 h 240 W/m -6.4 C -1.0 C 3.8 km/h (1 Bft)
03.01.2010 14:00 -0.2 C 61 % 1020.8 hPa 0.0 l/m 1.7 km/h (1 Bft) SO 0.75 h 166 W/m -6.8 C -0.2 C 3.5 km/h (1 Bft)
03.01.2010 15:00 0.1 C 56 % 1020.8 hPa 0.0 l/m 1.4 km/h (1 Bft) S 0.88 h 95 W/m -7.6 C 0.1 C 3.2 km/h (1 Bft)
03.01.2010 16:00 -0.0 C 57 % 1020.8 hPa 0.0 l/m 2.2 km/h (1 Bft) S 0.00 h 18 W/m -7.5 C -0.0 C 4.3 km/h (1 Bft)
03.01.2010 17:00 -1.7 C 64 % 1020.6 hPa 0.0 l/m 0.7 km/h (0 Bft) S 0.00 h 0 W/m -7.5 C -1.7 C 1.7 km/h (1 Bft)
03.01.2010 18:00 -2.5 C 70 % 1020.5 hPa 0.0 l/m 0.1 km/h (0 Bft) S 0.00 h 0 W/m -7.3 C -2.5 C 0.6 km/h (0 Bft)
03.01.2010 19:00 -3.8 C 76 % 1020.8 hPa 0.0 l/m 0.4 km/h (0 Bft) S 0.00 h 0 W/m -7.5 C -3.8 C 1.1 km/h (1 Bft)
03.01.2010 20:00 -4.6 C 80 % 1020.7 hPa 0.0 l/m 0.0 km/h (0 Bft) N 0.00 h 0 W/m -7.5 C -4.6 C 0.3 km/h (0 Bft)
03.01.2010 21:00 -5.3 C 82 % 1020.5 hPa 0.0 l/m 0.1 km/h (0 Bft) S 0.00 h 0 W/m -7.8 C -5.3 C 0.4 km/h (0 Bft)
03.01.2010 22:00 -5.9 C 85 % 1020.3 hPa 0.0 l/m 0.0 km/h (0 Bft) N 0.00 h 0 W/m -8.0 C -5.9 C 0.0 km/h (0 Bft)
03.01.2010 23:00 -6.4 C 86 % 1020.0 hPa 0.0 l/m 0.0 km/h (0 Bft) N 0.00 h 0 W/m -8.4 C -6.4 C 0.3 km/h (0 Bft)
Min-Datum _ 03.01.10 03.01.10 01.01.10 - 28.12.09 - - - 03.01.10 03.01.10 28.12.09
_ Min-Zeit 09:00 15:45 07:45 - 01:18 - - - 08:38 06:44 01:34
Minimum _ -7.4 C 54 % 989.6 hPa - 0.0 km/h (0 Bft) - - - -8.9 C -9.6 C 0.0 km/h (0 Bft)
Max-Datum _ 30.12.09 29.12.09 03.01.10 30.12.09 01.01.10 - 02.01.10 02.01.10 30.12.09 30.12.09 01.01.10
_ Max-Zeit 16:59 21:48 05:15 04:01 22:24 - 12:28 11:50 16:59 17:18 22:24
Maximum _ 8.2 C 99 % 1023.8 hPa 5.2 l/m 33.0 km/h
W (5 Bft)
- 0.03 h 411 W/m 8.1 C 8.2 C 53.9 km/h
W-NW (7 Bft)
Durchschnitt _ 2.1 C 91 % 1005.3 hPa #52.6 l/m 3.2 km/h (1 Bft) W #9:42 h 24 W/m 0.7 C 1.4 C 5.3 km/h (1 Bft)
© Kaiko 2010